Latest Weather Observations for Fort Denison

IDN60901

Issued at 4:01 am EST Friday 22 June 2018 (issued every 10 minutes, with the page automatically refreshed every 10 minutes)

About weather observations | Map of Sydney area stations | Latest observations for Sydney area | Other Formats
Station Details ID: 066022 Name: FORT DENISON Lat: -33.86 Lon: 151.23 Height: 5.0 m
Data from the previous 72 hours. | See also: Recent months for locations in New South Wales
Date/Time
EST
Temp
°C
App
Temp
°C
Dew
Point
°C
Rel
Hum
%
Delta-T
°C
Wind Press
QNH
hPa
Press
MSL
hPa
Rain since
9am
mm
Dir  Spd
km/h
Gust
km/h
Spd
kts
Gust
kts
22/04:00am - - - - - W 20 24 11 13 - - -
22/03:30am - - - - - W 20 24 11 13 - - -
22/03:00am - - - - - W 20 22 11 12 - - -
22/02:30am - - - - - W 15 17 8 9 - - -
22/02:00am - - - - - W 13 17 7 9 - - -
22/01:30am - - - - - W 15 17 8 9 - - -
22/01:00am - - - - - W 15 19 8 10 - - -
22/12:30am - - - - - WNW 15 17 8 9 - - -
22/12:00am - - - - - WNW 13 15 7 8 - - -
 
Date/Time
EST
Temp
°C
App
Temp
°C
Dew
Point
°C
Rel
Hum
%
Delta-T
°C
Wind Press
QNH
hPa
Press
MSL
hPa
Rain since
9am
mm
Dir  Spd
km/h
Gust
km/h
Spd
kts
Gust
kts
21/11:30pm - - - - - WNW 11 11 6 6 - - -
21/11:00pm - - - - - W 11 13 6 7 - - -
21/10:30pm - - - - - W 15 17 8 9 - - -
21/10:00pm - - - - - WNW 15 17 8 9 - - -
21/09:30pm - - - - - WNW 15 17 8 9 - - -
21/09:00pm - - - - - W 15 17 8 9 - - -
21/08:30pm - - - - - WNW 11 15 6 8 - - -
21/08:00pm - - - - - S 4 6 2 3 - - -
21/07:30pm - - - - - NNE 7 11 4 6 - - -
21/07:00pm - - - - - N 6 7 3 4 - - -
21/06:30pm - - - - - NW 2 4 1 2 - - -
21/06:00pm - - - - - CALM 0 0 0 0 - - -
21/05:30pm - - - - - NNW 4 4 2 2 - - -
21/05:00pm - - - - - NNE 2 4 1 2 - - -
21/04:30pm - - - - - ENE 6 6 3 3 - - -
21/04:00pm - - - - - NE 2 2 1 1 - - -
21/03:30pm - - - - - N 2 2 1 1 - - -
21/03:00pm - - - - - WNW 4 6 2 3 - - -
21/02:30pm - - - - - WNW 6 7 3 4 - - -
21/02:00pm - - - - - WNW 9 9 5 5 - - -
21/01:30pm - - - - - WNW 11 11 6 6 - - -
21/01:00pm - - - - - WNW 9 11 5 6 - - -
21/12:30pm - - - - - WNW 13 15 7 8 - - -
21/12:00pm - - - - - WNW 15 17 8 9 - - -
21/11:30am - - - - - W 17 20 9 11 - - -
21/11:00am - - - - - W 19 20 10 11 - - -
21/10:30am - - - - - WNW 20 22 11 12 - - -
21/10:00am - - - - - W 20 24 11 13 - - -
21/09:30am - - - - - W 13 17 7 9 - - -
21/09:00am - - - - - W 19 22 10 12 - - -
21/08:30am - - - - - W 22 26 12 14 - - -
21/08:00am - - - - - W 17 20 9 11 - - -
21/07:30am - - - - - WNW 11 17 6 9 - - -
21/07:00am - - - - - WNW 15 17 8 9 - - -
21/06:30am - - - - - WNW 17 19 9 10 - - -
21/06:00am - - - - - W 22 28 12 15 - - -
21/05:30am - - - - - W 17 19 9 10 - - -
21/05:00am - - - - - W 13 19 7 10 - - -
21/04:30am - - - - - WNW 13 17 7 9 - - -
21/04:00am - - - - - W 17 19 9 10 - - -
21/03:30am - - - - - WNW 9 13 5 7 - - -
21/03:00am - - - - - W 9 13 5 7 - - -
21/02:30am - - - - - W 17 20 9 11 - - -
21/02:00am - - - - - WNW 15 19 8 10 - - -
21/01:30am - - - - - W 17 20 9 11 - - -
21/01:00am - - - - - WNW 17 19 9 10 - - -
21/12:30am - - - - - WNW 15 19 8 10 - - -
21/12:00am - - - - - WNW 13 15 7 8 - - -
 
Date/Time
EST
Temp
°C
App
Temp
°C
Dew
Point
°C
Rel
Hum
%
Delta-T
°C
Wind Press
QNH
hPa
Press
MSL
hPa
Rain since
9am
mm
Dir  Spd
km/h
Gust
km/h
Spd
kts
Gust
kts
20/11:30pm - - - - - WNW 15 19 8 10 - - -
20/11:00pm - - - - - W 13 17 7 9 - - -
20/10:30pm - - - - - W 9 19 5 10 - - -
20/10:00pm - - - - - SSW 13 19 7 10 - - -
20/09:30pm - - - - - SSW 15 22 8 12 - - -
20/09:00pm - - - - - SSW 17 26 9 14 - - -
20/08:30pm - - - - - SSW 17 26 9 14 - - -
20/08:00pm - - - - - SSW 13 22 7 12 - - -
20/07:30pm - - - - - SSW 15 22 8 12 - - -
20/07:00pm - - - - - SSW 13 20 7 11 - - -
20/06:30pm - - - - - SW 11 19 6 10 - - -
20/06:00pm - - - - - WSW 15 22 8 12 - - -
20/05:30pm - - - - - SW 17 26 9 14 - - -
20/05:00pm - - - - - SSW 17 26 9 14 - - -
20/04:30pm - - - - - S 19 30 10 16 - - -
20/04:00pm - - - - - SSW 19 32 10 17 - - -
20/03:30pm - - - - - S 24 37 13 20 - - -
20/03:27pm - - - - - S 20 37 11 20 - - -
20/03:00pm - - - - - SSW 13 19 7 10 - - -
20/02:30pm - - - - - S 22 37 12 20 - - -
20/02:00pm - - - - - S 19 33 10 18 - - -
20/01:30pm - - - - - SSW 19 32 10 17 - - -
20/01:00pm - - - - - S 15 24 8 13 - - -
20/12:30pm - - - - - SSW 17 26 9 14 - - -
20/12:00pm - - - - - SSW 17 24 9 13 - - -
20/11:30am - - - - - WNW 15 19 8 10 - - -
20/11:00am - - - - - WNW 17 19 9 10 - - -
20/10:30am - - - - - WSW 11 24 6 13 - - -
20/10:00am - - - - - WNW 19 22 10 12 - - -
20/09:30am - - - - - W 20 24 11 13 - - -
20/09:00am - - - - - WNW 22 24 12 13 - - -
20/08:30am - - - - - WNW 24 26 13 14 - - -
20/08:00am - - - - - WNW 24 28 13 15 - - -
20/07:30am - - - - - SSW 13 22 7 12 - - -
20/07:00am - - - - - SW 17 24 9 13 - - -
20/06:30am - - - - - SSW 17 24 9 13 - - -
20/06:00am - - - - - SW 11 19 6 10 - - -
20/05:30am - - - - - SW 15 24 8 13 - - -
20/05:00am - - - - - S 11 19 6 10 - - -
20/04:30am - - - - - WSW 13 20 7 11 - - -
20/04:00am - - - - - W 20 32 11 17 - - -
20/03:30am - - - - - WSW 17 22 9 12 - - -
20/03:00am - - - - - SW 17 32 9 17 - - -
20/02:30am - - - - - W 28 35 15 19 - - -
20/02:00am - - - - - W 19 30 10 16 - - -
20/01:30am - - - - - SSE 17 30 9 16 - - -
20/01:00am - - - - - S 19 30 10 16 - - -
20/12:30am - - - - - SSW 17 28 9 15 - - -
20/12:00am - - - - - SSW 15 26 8 14 - - -
 
Date/Time
EST
Temp
°C
App
Temp
°C
Dew
Point
°C
Rel
Hum
%
Delta-T
°C
Wind Press
QNH
hPa
Press
MSL
hPa
Rain since
9am
mm
Dir  Spd
km/h
Gust
km/h
Spd
kts
Gust
kts
19/11:30pm - - - - - SSW 15 22 8 12 - - -
19/11:00pm - - - - - SSW 15 28 8 15 - - -
19/10:30pm - - - - - SSW 20 43 11 23 - - -
19/10:00pm - - - - - WSW 19 26 10 14 - - -
19/09:30pm - - - - - SSW 20 32 11 17 - - -
19/09:00pm - - - - - SW 15 32 8 17 - - -
19/08:30pm - - - - - SW 22 43 12 23 - - -
19/08:00pm - - - - - W 19 33 10 18 - - -
19/07:30pm - - - - - WSW 19 32 10 17 - - -
19/07:00pm - - - - - WSW 19 28 10 15 - - -
19/06:30pm - - - - - SW 13 19 7 10 - - -
19/06:00pm - - - - - SSW 22 39 12 21 - - -
19/05:34pm - - - - - S 33 52 18 28 - - -
19/05:30pm - - - - - S 35 52 19 28 - - -
19/05:24pm - - - - - SSE 35 50 19 27 - - -
19/05:13pm - - - - - SSW 28 59 15 32 - - -
19/05:00pm - - - - - SSW 26 43 14 23 - - -
19/04:30pm - - - - - SW 24 37 13 20 - - -
19/04:00pm - - - - - SW 24 43 13 23 - - -
19/03:30pm - - - - - SW 19 33 10 18 - - -
19/03:00pm - - - - - WSW 19 30 10 16 - - -
19/02:30pm - - - - - WSW 22 35 12 19 - - -
19/02:00pm - - - - - W 24 37 13 20 - - -
19/01:30pm - - - - - WSW 24 43 13 23 - - -
19/01:00pm - - - - - SW 26 44 14 24 - - -
19/12:30pm - - - - - SW 22 41 12 22 - - -
19/12:00pm - - - - - SW 32 50 17 27 - - -
19/11:50am - - - - - SW 28 52 15 28 - - -
19/11:30am - - - - - SW 20 33 11 18 - - -
19/11:00am - - - - - SW 28 46 15 25 - - -
19/10:30am - - - - - SW 19 37 10 20 - - -
19/10:06am - - - - - SW 28 48 15 26 - - -
19/10:00am - - - - - SW 26 44 14 24 - - -
19/09:53am - - - - - SW 28 46 15 25 - - -
19/09:30am - - - - - W 24 37 13 20 - - -
19/09:00am - - - - - WSW 22 32 12 17 - - -
19/08:30am - - - - - SSW 17 39 9 21 - - -
19/08:00am - - - - - WSW 26 44 14 24 - - -
19/07:30am - - - - - WSW 28 48 15 26 - - -
19/07:03am - - - - - SW 28 54 15 29 - - -
19/07:00am - - - - - WSW 24 54 13 29 - - -
19/06:30am - - - - - W 28 39 15 21 - - -
19/06:00am - - - - - W 26 33 14 18 - - -
19/05:30am - - - - - W 28 37 15 20 - - -
19/05:00am - - - - - W 22 30 12 16 - - -
19/04:30am - - - - - SW 28 41 15 22 - - -
19/04:02am - - - - - SW 28 54 15 29 - - -

Latest Capital City Observations: Canberra | Sydney | Melbourne | Brisbane | Adelaide | Perth | Hobart | Darwin

Other Formats:

Comma delimited format used in spreadsheet applications
http://www.bom.gov.au/fwo/IDN60901/IDN60901.94769.axf

JavaScript Object Notation format (JSON) in row-major order
http://www.bom.gov.au/fwo/IDN60901/IDN60901.94769.json